Time;durP1;ratioP1;P1;durP2;ratioP2;P2;SDS_P1;SDS_P2;PMS_P1;PMS_P2;Temp;Humidity;BMP_temperature;BMP_pressure;BME280_temperature;BME280_humidity;BME280_pressure;Samples;Min_cycle;Max_cycle;Signal;HPM_P1;HPM_P2
2024/01/05 00:01:38;;;;;;;11.07;3.47;;;6.10;99.90;;;;;;5064579;28;20127;-67
2024/01/05 00:04:04;;;;;;;11.32;3.95;;;6.10;99.90;;;;;;5073497;28;20028;-67
2024/01/05 00:06:29;;;;;;;11.75;3.17;;;6.10;99.90;;;;;;5072512;28;20032;-67
2024/01/05 00:08:55;;;;;;;13.32;3.70;;;6.20;99.90;;;;;;5076105;28;20021;-67
2024/01/05 00:11:21;;;;;;;13.18;3.17;;;6.20;99.90;;;;;;5070877;28;20419;-67
2024/01/05 00:13:47;;;;;;;19.30;3.20;;;6.20;99.90;;;;;;5079036;28;20099;-67
2024/01/05 00:16:20;;;;;;;12.73;3.00;;;6.20;99.90;;;;;;5065998;28;20528;-67
2024/01/05 00:18:46;;;;;;;11.77;3.38;;;6.20;99.90;;;;;;5075323;28;20028;-67
2024/01/05 00:21:25;;;;;;;17.30;3.65;;;6.30;99.90;;;;;;5072554;28;20029;-67
2024/01/05 00:23:53;;;;;;;21.33;4.10;;;6.30;99.90;;;;;;5070743;28;20032;-67
2024/01/05 00:26:19;;;;;;;15.88;3.13;;;6.20;99.90;;;;;;5074969;28;20032;-67
2024/01/05 00:28:47;;;;;;;10.80;2.97;;;6.30;99.90;;;;;;5073442;28;20805;-67
2024/01/05 00:31:14;;;;;;;14.45;3.75;;;6.30;99.90;;;;;;5071233;28;20016;-67
2024/01/05 00:33:40;;;;;;;21.00;3.28;;;6.30;99.90;;;;;;5075454;28;20395;-67
2024/01/05 00:36:07;;;;;;;16.83;3.50;;;6.30;99.90;;;;;;5072801;28;20047;-67
2024/01/05 00:38:33;;;;;;;14.48;3.28;;;6.40;99.90;;;;;;5072201;28;20030;-67
2024/01/05 00:40:58;;;;;;;11.93;2.97;;;6.40;99.90;;;;;;5075204;28;20562;-67
2024/01/05 00:43:24;;;;;;;19.25;3.72;;;6.40;99.90;;;;;;5066404;28;20037;-67
2024/01/05 00:45:49;;;;;;;13.50;3.55;;;6.40;99.90;;;;;;5080320;28;20024;-67
2024/01/05 00:48:15;;;;;;;19.98;3.42;;;6.40;99.90;;;;;;5072764;28;20021;-67
2024/01/05 00:50:41;;;;;;;16.35;3.40;;;6.40;99.90;;;;;;5078762;28;20085;-67
2024/01/05 00:53:06;;;;;;;19.40;3.70;;;6.40;99.90;;;;;;5079798;28;20074;-67
2024/01/05 00:55:32;;;;;;;12.63;2.75;;;6.20;99.90;;;;;;5073961;28;20035;-69
2024/01/05 00:57:58;;;;;;;13.55;3.47;;;6.30;99.90;;;;;;5075638;28;20043;-69
2024/01/05 01:00:24;;;;;;;14.30;3.33;;;6.40;99.90;;;;;;5074538;28;20056;-69
2024/01/05 01:02:53;;;;;;;14.18;2.80;;;6.40;99.90;;;;;;5079029;28;20492;-69
2024/01/05 01:05:18;;;;;;;16.75;3.42;;;6.40;99.90;;;;;;5079956;28;20024;-68
2024/01/05 01:07:44;;;;;;;14.60;2.90;;;6.40;99.90;;;;;;5081331;28;20036;-67
2024/01/05 01:10:10;;;;;;;15.32;3.42;;;6.40;99.90;;;;;;5071226;28;20025;-68
2024/01/05 01:12:35;;;;;;;17.55;3.85;;;6.40;99.90;;;;;;5080658;28;20030;-68
2024/01/05 01:15:01;;;;;;;18.45;3.47;;;6.40;99.90;;;;;;5073810;28;20110;-67
2024/01/05 01:17:29;;;;;;;14.48;3.38;;;6.40;99.90;;;;;;5076816;28;20028;-68
2024/01/05 01:19:55;;;;;;;14.35;3.10;;;6.40;99.90;;;;;;5074654;28;20460;-68
2024/01/05 01:22:21;;;;;;;17.08;3.20;;;6.40;99.90;;;;;;5075737;28;20098;-68
2024/01/05 01:24:47;;;;;;;21.00;3.50;;;6.40;99.90;;;;;;5077570;28;20062;-68
2024/01/05 01:27:13;;;;;;;8.00;2.45;;;6.40;99.90;;;;;;5076174;28;20021;-67
2024/01/05 01:29:39;;;;;;;14.40;3.10;;;6.40;99.90;;;;;;5076524;28;20032;-67
2024/01/05 01:32:05;;;;;;;11.63;2.63;;;6.40;99.90;;;;;;5074598;28;20124;-67
2024/01/05 01:34:31;;;;;;;13.10;3.03;;;6.50;99.90;;;;;;5056211;28;20034;-68
2024/01/05 01:36:56;;;;;;;16.10;2.78;;;6.60;99.90;;;;;;5075863;28;20107;-68
2024/01/05 01:39:22;;;;;;;14.43;3.15;;;6.60;99.90;;;;;;5079621;28;20043;-68
2024/01/05 01:41:47;;;;;;;15.10;3.67;;;6.70;99.90;;;;;;5079348;28;20501;-68
2024/01/05 01:44:14;;;;;;;13.15;3.05;;;6.70;99.90;;;;;;5070571;28;20062;-67
2024/01/05 01:46:40;;;;;;;9.23;2.30;;;6.70;99.90;;;;;;5075198;28;20654;-67
2024/01/05 01:49:06;;;;;;;17.83;2.80;;;6.70;99.90;;;;;;5074790;28;20024;-68
2024/01/05 01:51:32;;;;;;;9.07;2.00;;;6.70;99.90;;;;;;5074642;28;20024;-67
2024/01/05 01:54:05;;;;;;;16.60;4.18;;;6.70;99.90;;;;;;5079284;28;20599;-68
2024/01/05 01:56:35;;;;;;;10.52;3.38;;;6.60;99.90;;;;;;5074768;28;20093;-67
2024/01/05 01:59:03;;;;;;;13.52;2.95;;;6.60;99.90;;;;;;5074846;28;20410;-67
2024/01/05 02:01:29;;;;;;;14.98;3.10;;;6.60;99.90;;;;;;5074440;28;20040;-67
2024/01/05 02:03:55;;;;;;;12.82;2.65;;;6.60;99.90;;;;;;5073352;28;20475;-68
2024/01/05 02:06:20;;;;;;;19.52;2.92;;;6.50;99.90;;;;;;5078508;28;20032;-68
2024/01/05 02:08:47;;;;;;;13.77;2.90;;;6.40;99.90;;;;;;5076941;28;20028;-67
2024/01/05 02:11:16;;;;;;;11.50;2.70;;;6.30;99.90;;;;;;5077723;28;20044;-67
2024/01/05 02:13:43;;;;;;;18.67;3.50;;;6.40;99.90;;;;;;5074736;28;20090;-67
2024/01/05 02:16:09;;;;;;;11.75;2.78;;;6.30;99.90;;;;;;5076007;28;20414;-69
2024/01/05 02:18:34;;;;;;;7.72;2.30;;;6.40;99.90;;;;;;5079332;28;20069;-68
2024/01/05 02:21:02;;;;;;;22.20;3.92;;;6.40;99.90;;;;;;5071068;28;20083;-68
2024/01/05 02:23:29;;;;;;;15.98;3.08;;;6.40;99.90;;;;;;5079230;28;20020;-68
2024/01/05 02:25:55;;;;;;;13.65;2.72;;;6.50;99.90;;;;;;5076661;28;20043;-68
2024/01/05 02:28:21;;;;;;;19.80;3.40;;;6.50;99.90;;;;;;5074479;28;20043;-68
2024/01/05 02:30:47;;;;;;;13.05;3.10;;;6.40;99.90;;;;;;5077523;28;20096;-68
2024/01/05 02:33:13;;;;;;;13.95;2.97;;;6.50;99.90;;;;;;5072791;28;20393;-68
2024/01/05 02:35:38;;;;;;;14.38;2.95;;;6.50;99.90;;;;;;5071597;28;20032;-69
2024/01/05 02:38:05;;;;;;;15.65;3.13;;;6.50;99.90;;;;;;5074156;28;20053;-69
2024/01/05 02:40:31;;;;;;;16.88;2.72;;;6.50;99.90;;;;;;5070827;28;20115;-68
2024/01/05 02:42:57;;;;;;;14.38;2.97;;;6.60;99.90;;;;;;5076731;28;20107;-68
2024/01/05 02:45:24;;;;;;;15.30;4.53;;;6.50;99.90;;;;;;5072680;28;20034;-68
2024/01/05 02:47:50;;;;;;;12.60;2.63;;;6.50;99.90;;;;;;5071657;28;20158;-68
2024/01/05 02:50:16;;;;;;;13.95;2.90;;;6.60;99.90;;;;;;5077454;28;20017;-68
2024/01/05 02:52:42;;;;;;;10.15;2.22;;;6.60;99.90;;;;;;5069300;28;20024;-68
2024/01/05 02:55:09;;;;;;;15.77;3.30;;;6.50;99.90;;;;;;5071580;28;20455;-68
2024/01/05 02:57:35;;;;;;;14.02;2.92;;;6.50;99.90;;;;;;5076779;28;20036;-68
2024/01/05 03:00:01;;;;;;;13.93;2.95;;;6.60;99.90;;;;;;5074383;28;20418;-68
2024/01/05 03:02:26;;;;;;;12.40;3.10;;;6.50;99.90;;;;;;5072636;28;20048;-68
2024/01/05 03:04:52;;;;;;;9.90;2.58;;;6.50;99.90;;;;;;5077158;28;20049;-68
2024/01/05 03:07:18;;;;;;;11.43;2.53;;;6.50;99.90;;;;;;5072204;28;20033;-68
2024/01/05 03:09:43;;;;;;;11.18;2.50;;;6.50;99.90;;;;;;5071218;28;20052;-68
2024/01/05 03:12:09;;;;;;;13.60;2.75;;;6.50;99.90;;;;;;5073266;28;20016;-68
2024/01/05 03:14:35;;;;;;;14.20;2.70;;;6.50;99.90;;;;;;5071744;28;20086;-68
2024/01/05 03:17:02;;;;;;;11.40;2.67;;;6.40;99.90;;;;;;5075135;28;20468;-68
2024/01/05 03:19:28;;;;;;;11.13;3.22;;;6.30;99.90;;;;;;5070102;28;20078;-68
2024/01/05 03:21:54;;;;;;;16.58;3.15;;;6.40;99.90;;;;;;5072711;28;20052;-68
2024/01/05 03:24:19;;;;;;;12.27;2.20;;;6.40;99.90;;;;;;5074602;28;20082;-67
2024/01/05 03:26:45;;;;;;;13.90;2.92;;;6.40;99.90;;;;;;5073874;28;20476;-67
2024/01/05 03:29:11;;;;;;;9.88;2.65;;;6.30;99.90;;;;;;5078491;28;20060;-67
2024/01/05 03:31:37;;;;;;;16.63;2.78;;;6.30;99.90;;;;;;5071188;28;20051;-67
2024/01/05 03:34:03;;;;;;;37.63;4.00;;;6.30;99.90;;;;;;5073568;28;20021;-67
2024/01/05 03:36:29;;;;;;;15.90;2.50;;;6.30;99.90;;;;;;5076011;28;20116;-67
2024/01/05 03:38:55;;;;;;;15.82;2.92;;;6.30;99.90;;;;;;5073346;28;20107;-67
2024/01/05 03:41:21;;;;;;;11.63;2.70;;;6.40;99.90;;;;;;5065554;28;20021;-67
2024/01/05 03:43:47;;;;;;;10.43;2.38;;;6.40;99.90;;;;;;5070616;28;20482;-67
2024/01/05 03:46:12;;;;;;;12.70;2.63;;;6.40;99.90;;;;;;5074139;28;20468;-67
2024/01/05 03:48:39;;;;;;;10.60;2.40;;;6.40;99.90;;;;;;5074746;28;20116;-67
2024/01/05 03:51:05;;;;;;;10.52;2.33;;;6.40;99.90;;;;;;5074127;28;20035;-67
2024/01/05 03:53:30;;;;;;;12.90;2.42;;;6.40;99.90;;;;;;5072696;28;20028;-67
2024/01/05 03:55:59;;;;;;;7.93;2.15;;;6.40;99.90;;;;;;5078055;28;20058;-67
2024/01/05 03:58:25;;;;;;;9.10;2.60;;;6.40;99.90;;;;;;5071193;28;20043;-67
2024/01/05 04:00:51;;;;;;;14.30;3.03;;;6.40;99.90;;;;;;5073438;28;20044;-67
2024/01/05 04:03:19;;;;;;;17.40;3.78;;;6.30;99.90;;;;;;5073863;28;20487;-67
2024/01/05 04:05:45;;;;;;;17.17;3.33;;;6.30;99.90;;;;;;5073960;28;20029;-67
2024/01/05 04:08:12;;;;;;;14.00;2.20;;;6.30;99.90;;;;;;5074455;28;20054;-67
2024/01/05 04:10:38;;;;;;;12.50;2.50;;;6.30;99.90;;;;;;5071165;28;20016;-67
2024/01/05 04:13:04;;;;;;;10.52;3.33;;;6.30;99.90;;;;;;5071484;28;20078;-67
2024/01/05 04:15:34;;;;;;;11.77;2.90;;;6.30;99.90;;;;;;5075360;28;20118;-67
2024/01/05 04:18:00;;;;;;;12.48;2.20;;;6.30;99.90;;;;;;5074335;28;20036;-67
2024/01/05 04:20:26;;;;;;;12.98;3.00;;;6.30;99.90;;;;;;5073961;28;20406;-67
2024/01/05 04:22:52;;;;;;;15.40;2.50;;;6.20;99.90;;;;;;5076438;28;20039;-67
2024/01/05 04:25:17;;;;;;;10.85;2.72;;;6.40;99.90;;;;;;5064332;28;20074;-67
2024/01/05 04:27:43;;;;;;;13.80;2.70;;;6.20;99.90;;;;;;5078796;28;20032;-67
2024/01/05 04:30:09;;;;;;;22.15;2.80;;;6.20;99.90;;;;;;5070576;28;20044;-67
2024/01/05 04:32:35;;;;;;;12.77;3.22;;;;;;;;;;5076436;28;20073;-67
2024/01/05 04:35:01;;;;;;;10.70;2.63;;;6.20;99.90;;;;;;5081370;28;20028;-68
2024/01/05 04:37:28;;;;;;;10.43;2.40;;;6.20;99.90;;;;;;5082200;28;20024;-69
2024/01/05 04:39:53;;;;;;;15.85;2.90;;;6.30;99.90;;;;;;5081008;28;20468;-68
2024/01/05 04:42:19;;;;;;;7.88;2.20;;;6.30;99.90;;;;;;5083321;28;20026;-69
2024/01/05 04:44:45;;;;;;;12.90;2.33;;;6.20;99.90;;;;;;5079141;28;20458;-68
2024/01/05 04:47:10;;;;;;;17.17;2.80;;;6.30;99.90;;;;;;5082664;28;20031;-68
2024/01/05 04:49:36;;;;;;;11.65;2.75;;;6.30;99.90;;;;;;5081196;28;20107;-68
2024/01/05 04:52:02;;;;;;;12.70;3.05;;;6.30;99.90;;;;;;5081738;28;20082;-68
2024/01/05 04:54:27;;;;;;;18.02;3.33;;;6.30;99.90;;;;;;5082004;28;20059;-68
2024/01/05 04:56:53;;;;;;;11.38;2.25;;;6.30;99.90;;;;;;5083812;28;20467;-68
2024/01/05 04:59:22;;;;;;;7.80;1.92;;;6.30;99.90;;;;;;5078487;28;20028;-68
2024/01/05 05:01:48;;;;;;;8.18;2.20;;;6.40;99.90;;;;;;5076438;28;20056;-68
2024/01/05 05:04:16;;;;;;;9.02;2.38;;;6.50;99.90;;;;;;5074903;28;20028;-68
2024/01/05 05:06:41;;;;;;;13.20;2.80;;;6.60;99.90;;;;;;5079479;28;20056;-68
2024/01/05 05:09:08;;;;;;;13.30;2.70;;;6.60;99.90;;;;;;5088841;28;20055;-68
2024/01/05 05:11:35;;;;;;;14.35;2.55;;;6.70;99.90;;;;;;5080931;28;20521;-69
2024/01/05 05:14:00;;;;;;;11.05;2.30;;;6.70;99.90;;;;;;5081339;28;20691;-68
2024/01/05 05:16:26;;;;;;;11.02;2.13;;;6.80;99.90;;;;;;5081148;28;20024;-68
2024/01/05 05:18:53;;;;;;;9.85;2.50;;;6.80;99.90;;;;;;5081911;28;20032;-69
2024/01/05 05:21:19;;;;;;;9.25;2.13;;;6.90;99.90;;;;;;5081057;28;20058;-68
2024/01/05 05:23:44;;;;;;;9.48;2.38;;;6.90;99.90;;;;;;5079828;28;20024;-68
2024/01/05 05:26:10;;;;;;;17.95;2.75;;;6.90;99.90;;;;;;5079241;28;20033;-68
2024/01/05 05:28:36;;;;;;;10.80;2.58;;;6.90;99.90;;;;;;5082125;28;20534;-68
2024/01/05 05:31:02;;;;;;;13.55;2.75;;;6.90;99.90;;;;;;5073731;28;20517;-69
2024/01/05 05:33:28;;;;;;;7.95;1.98;;;6.90;99.90;;;;;;5077742;28;20046;-68
2024/01/05 05:35:53;;;;;;;11.27;2.65;;;7.00;99.90;;;;;;5081237;28;20036;-68
2024/01/05 05:38:19;;;;;;;11.23;2.25;;;6.90;99.90;;;;;;5077608;28;20039;-68
2024/01/05 05:40:45;;;;;;;12.07;2.47;;;6.90;99.90;;;;;;5075389;28;20592;-68
2024/01/05 05:43:11;;;;;;;14.68;2.60;;;7.00;99.90;;;;;;5069889;28;20029;-68
2024/01/05 05:45:37;;;;;;;9.75;2.10;;;7.00;99.90;;;;;;5089633;28;20111;-69
2024/01/05 05:48:04;;;;;;;7.10;2.20;;;7.00;99.90;;;;;;5080066;28;20188;-70
2024/01/05 05:50:29;;;;;;;10.60;2.60;;;7.00;99.90;;;;;;5080453;28;20099;-68
2024/01/05 05:52:55;;;;;;;15.30;2.70;;;6.90;99.90;;;;;;5080311;28;20146;-69
2024/01/05 05:55:21;;;;;;;14.85;2.60;;;7.00;99.90;;;;;;5079556;28;20424;-69
2024/01/05 05:57:46;;;;;;;10.23;2.22;;;6.90;99.90;;;;;;5079114;28;20100;-69
2024/01/05 06:00:12;;;;;;;11.05;2.15;;;6.90;99.90;;;;;;5081579;28;20024;-69
2024/01/05 06:02:38;;;;;;;10.32;2.42;;;6.90;99.90;;;;;;5077160;28;20059;-69
2024/01/05 06:05:05;;;;;;;8.52;2.25;;;7.00;99.90;;;;;;5081532;28;20491;-69
2024/01/05 06:07:31;;;;;;;9.35;2.28;;;7.00;99.90;;;;;;5079086;28;20020;-69
2024/01/05 06:10:01;;;;;;;9.73;2.78;;;7.00;99.90;;;;;;5080158;28;20387;-69
2024/01/05 06:12:26;;;;;;;10.90;2.75;;;6.90;99.90;;;;;;5077943;28;20039;-69
2024/01/05 06:14:52;;;;;;;9.65;2.00;;;6.90;99.90;;;;;;5079691;28;20025;-69
2024/01/05 06:17:18;;;;;;;8.02;2.72;;;7.00;99.90;;;;;;5078952;28;20021;-69
2024/01/05 06:19:44;;;;;;;10.85;2.53;;;7.00;99.90;;;;;;5079898;28;20031;-68
2024/01/05 06:22:10;;;;;;;5.40;1.60;;;7.00;99.90;;;;;;5077399;28;20545;-68
2024/01/05 06:24:35;;;;;;;17.98;2.80;;;7.00;99.90;;;;;;5078737;28;20059;-68
2024/01/05 06:27:01;;;;;;;9.02;2.38;;;7.10;99.90;;;;;;5075799;28;20032;-68
2024/01/05 06:29:27;;;;;;;15.23;2.40;;;7.10;99.90;;;;;;5077210;28;20082;-68
2024/01/05 06:31:53;;;;;;;9.90;2.40;;;7.10;99.90;;;;;;5073948;28;20028;-69
2024/01/05 06:34:18;;;;;;;9.10;2.38;;;7.20;99.90;;;;;;5074911;28;20055;-69
2024/01/05 06:36:44;;;;;;;11.18;2.47;;;7.20;99.90;;;;;;5074613;28;20430;-68
2024/01/05 06:39:10;;;;;;;7.18;2.08;;;7.30;99.90;;;;;;5084515;28;20482;-68
2024/01/05 06:41:35;;;;;;;7.03;1.70;;;7.30;99.90;;;;;;5080498;28;20028;-68
2024/01/05 06:44:01;;;;;;;6.80;2.00;;;7.50;99.90;;;;;;5077218;28;20055;-68
2024/01/05 06:46:27;;;;;;;8.98;2.53;;;7.40;99.90;;;;;;5077099;28;20028;-68
2024/01/05 06:48:55;;;;;;;10.73;2.28;;;7.40;99.90;;;;;;5078530;28;20028;-68
2024/01/05 06:51:23;;;;;;;7.82;2.05;;;7.30;99.90;;;;;;5078945;28;20109;-68
2024/01/05 06:53:48;;;;;;;7.75;2.28;;;7.30;99.90;;;;;;5083253;28;20052;-68
2024/01/05 06:56:14;;;;;;;11.55;1.92;;;7.30;99.90;;;;;;5076942;28;20055;-68
2024/01/05 06:58:40;;;;;;;7.22;1.80;;;7.10;99.90;;;;;;5074515;28;20035;-68
2024/01/05 07:01:06;;;;;;;8.68;2.33;;;7.00;99.90;;;;;;5073599;28;20097;-68
2024/01/05 07:03:32;;;;;;;6.38;2.13;;;6.90;99.90;;;;;;5072796;28;20151;-68
2024/01/05 07:05:58;;;;;;;5.82;1.35;;;6.80;99.90;;;;;;5074779;28;20035;-68
2024/01/05 07:08:24;;;;;;;8.68;2.03;;;6.80;99.90;;;;;;5075956;28;20025;-68
2024/01/05 07:10:49;;;;;;;7.93;2.17;;;6.80;99.90;;;;;;5074418;28;20029;-68
2024/01/05 07:13:15;;;;;;;13.65;2.40;;;6.80;99.90;;;;;;5074884;28;20060;-68
2024/01/05 07:15:41;;;;;;;11.27;1.90;;;6.70;99.90;;;;;;5078926;28;20089;-68
2024/01/05 07:18:07;;;;;;;8.75;2.22;;;6.70;99.90;;;;;;5068966;28;20870;-69
2024/01/05 07:20:33;;;;;;;6.70;1.60;;;6.70;99.90;;;;;;5093940;28;20032;-68
2024/01/05 07:22:59;;;;;;;7.57;1.92;;;6.70;99.90;;;;;;5074468;28;20036;-68
2024/01/05 07:25:25;;;;;;;8.45;2.17;;;6.70;99.90;;;;;;5077090;28;20038;-68
2024/01/05 07:27:50;;;;;;;9.82;2.10;;;6.60;99.90;;;;;;5077718;28;20035;-69
2024/01/05 07:30:16;;;;;;;7.20;1.83;;;6.70;99.90;;;;;;5075481;28;20021;-69
2024/01/05 07:32:41;;;;;;;4.18;1.48;;;6.70;99.90;;;;;;5068713;28;20037;-68
2024/01/05 07:35:07;;;;;;;10.60;2.17;;;6.80;99.90;;;;;;5063452;28;20035;-68
2024/01/05 07:37:33;;;;;;;9.40;2.15;;;7.00;99.90;;;;;;5060129;28;20049;-68
2024/01/05 07:40:00;;;;;;;6.05;1.80;;;7.10;99.90;;;;;;5056154;28;20072;-68
2024/01/05 07:42:27;;;;;;;7.90;1.80;;;7.10;99.90;;;;;;5063204;28;20028;-68
2024/01/05 07:44:54;;;;;;;5.95;1.58;;;7.20;99.90;;;;;;5065992;28;20073;-68
2024/01/05 07:47:19;;;;;;;7.80;2.10;;;7.20;99.90;;;;;;5065718;28;20024;-68
2024/01/05 07:49:45;;;;;;;8.10;1.88;;;7.30;99.90;;;;;;5075824;28;20449;-69
2024/01/05 07:52:11;;;;;;;6.90;1.52;;;7.30;99.90;;;;;;5072331;28;20025;-68
2024/01/05 07:54:39;;;;;;;7.78;2.05;;;7.30;99.90;;;;;;5073245;28;20085;-68
2024/01/05 07:57:05;;;;;;;8.98;1.92;;;7.40;99.90;;;;;;5076295;28;20716;-68
2024/01/05 07:59:30;;;;;;;6.63;1.70;;;7.30;99.90;;;;;;5090945;28;20024;-68
2024/01/05 08:01:56;;;;;;;6.75;1.30;;;7.40;99.90;;;;;;5065020;28;20056;-68
2024/01/05 08:04:22;;;;;;;6.63;1.25;;;7.40;99.90;;;;;;5075248;28;20523;-68
2024/01/05 08:06:48;;;;;;;7.57;1.55;;;7.50;99.90;;;;;;5076476;28;20095;-68
2024/01/05 08:09:13;;;;;;;8.85;1.60;;;7.50;99.90;;;;;;5071277;28;20036;-68
2024/01/05 08:11:45;;;;;;;8.60;1.75;;;7.60;99.90;;;;;;5087274;28;20027;-68
2024/01/05 08:14:12;;;;;;;4.57;1.50;;;7.60;99.90;;;;;;5078680;28;20048;-68
2024/01/05 08:16:38;;;;;;;5.47;1.42;;;7.60;99.90;;;;;;5070839;28;20029;-68
2024/01/05 08:19:03;;;;;;;7.13;1.40;;;7.60;99.90;;;;;;5071090;28;20499;-68
2024/01/05 08:21:29;;;;;;;7.55;1.40;;;7.70;99.90;;;;;;5061270;28;20082;-68
2024/01/05 08:23:56;;;;;;;7.07;1.63;;;7.70;99.90;;;;;;5078825;28;20029;-68
2024/01/05 08:26:21;;;;;;;7.63;1.73;;;7.70;99.90;;;;;;5080632;28;20078;-68
2024/01/05 08:28:47;;;;;;;7.63;1.60;;;7.70;99.90;;;;;;5068172;28;20482;-68
2024/01/05 08:31:13;;;;;;;5.05;1.30;;;7.60;99.90;;;;;;5075533;28;20341;-68
2024/01/05 08:33:39;;;;;;;7.68;1.50;;;7.60;99.90;;;;;;5076035;28;20105;-69
2024/01/05 08:36:04;;;;;;;8.18;1.60;;;7.60;99.90;;;;;;5074729;28;20115;-67
2024/01/05 08:38:30;;;;;;;5.80;1.58;;;7.60;99.90;;;;;;5073312;28;20475;-68
2024/01/05 08:40:56;;;;;;;6.50;1.63;;;7.70;99.90;;;;;;5070663;28;20025;-68
2024/01/05 08:43:22;;;;;;;5.50;1.40;;;7.70;99.90;;;;;;5067085;28;20096;-68
2024/01/05 08:45:47;;;;;;;9.18;2.05;;;7.70;99.90;;;;;;5081462;28;20558;-68
2024/01/05 08:48:16;;;;;;;4.65;1.40;;;7.80;99.90;;;;;;5072424;28;20020;-68
2024/01/05 08:50:42;;;;;;;6.10;1.60;;;7.90;99.90;;;;;;5071410;28;20111;-68
2024/01/05 08:53:09;;;;;;;5.45;1.45;;;7.90;99.90;;;;;;5070784;28;20698;-68
2024/01/05 08:55:35;;;;;;;8.32;2.28;;;7.90;99.90;;;;;;5068970;28;20020;-68
2024/01/05 08:58:02;;;;;;;7.10;1.40;;;7.90;99.90;;;;;;5079070;28;20047;-68
2024/01/05 09:00:28;;;;;;;6.05;1.40;;;8.00;99.90;;;;;;5077758;28;20688;-68
2024/01/05 09:02:55;;;;;;;4.65;1.70;;;8.00;99.90;;;;;;5062427;28;20033;-70
2024/01/05 09:05:21;;;;;;;5.78;1.35;;;8.10;99.90;;;;;;5062830;28;20463;-68
2024/01/05 09:07:50;;;;;;;5.30;1.48;;;8.00;99.90;;;;;;5077700;28;20155;-68
2024/01/05 09:10:16;;;;;;;10.52;1.67;;;8.00;99.90;;;;;;5071539;28;20388;-68
2024/01/05 09:12:41;;;;;;;5.28;1.30;;;8.00;99.90;;;;;;5069265;28;20021;-68
2024/01/05 09:15:08;;;;;;;4.78;1.40;;;8.00;99.90;;;;;;5072377;28;20093;-68
2024/01/05 09:17:33;;;;;;;5.57;1.63;;;8.00;99.90;;;;;;5075175;28;20473;-68
2024/01/05 09:20:00;;;;;;;4.18;1.20;;;8.10;99.90;;;;;;5066292;28;20162;-68
2024/01/05 09:22:25;;;;;;;4.03;1.40;;;8.10;99.90;;;;;;5071220;28;20096;-68
2024/01/05 09:24:51;;;;;;;7.13;1.60;;;8.10;99.90;;;;;;5074594;28;20031;-68
2024/01/05 09:27:17;;;;;;;5.95;1.55;;;8.30;99.90;;;;;;5071516;28;20028;-68
2024/01/05 09:29:42;;;;;;;5.85;1.38;;;8.40;99.90;;;;;;5069515;28;20399;-68
2024/01/05 09:32:08;;;;;;;4.38;1.17;;;8.40;99.90;;;;;;5067983;28;20357;-68
2024/01/05 09:34:33;;;;;;;6.10;1.48;;;8.40;99.90;;;;;;5077108;28;20039;-68
2024/01/05 09:36:59;;;;;;;4.63;1.30;;;8.50;99.90;;;;;;5069230;28;20104;-68
2024/01/05 09:39:25;;;;;;;4.88;1.20;;;8.40;99.90;;;;;;5073978;28;20041;-68
2024/01/05 09:41:50;;;;;;;7.50;1.17;;;8.30;99.90;;;;;;5079960;28;20024;-68
2024/01/05 09:44:17;;;;;;;3.42;1.20;;;8.40;99.90;;;;;;5073446;28;20028;-68
2024/01/05 09:46:44;;;;;;;4.10;1.23;;;8.30;99.90;;;;;;5074572;28;20035;-68
2024/01/05 09:49:13;;;;;;;1.88;0.82;;;8.30;99.90;;;;;;5076900;28;20117;-68
2024/01/05 09:51:39;;;;;;;4.22;1.00;;;8.30;99.90;;;;;;5070693;28;20043;-68
2024/01/05 09:54:05;;;;;;;5.03;1.13;;;8.30;99.90;;;;;;5076431;28;20186;-68
2024/01/05 09:56:31;;;;;;;3.65;1.00;;;8.30;99.90;;;;;;5077511;28;20024;-68
2024/01/05 09:58:57;;;;;;;2.60;0.90;;;8.30;99.90;;;;;;5077513;28;20727;-68
2024/01/05 10:01:28;;;;;;;1.98;1.00;;;8.30;99.90;;;;;;5077427;28;20052;-68
2024/01/05 10:04:02;;;;;;;5.10;1.45;;;8.30;99.90;;;;;;5074057;28;20082;-68
2024/01/05 10:06:30;;;;;;;3.05;1.10;;;8.20;99.90;;;;;;5080894;28;20028;-68
2024/01/05 10:08:57;;;;;;;6.00;1.20;;;8.20;99.90;;;;;;5076650;28;20039;-69
2024/01/05 10:11:35;;;;;;;3.33;1.02;;;8.20;99.90;;;;;;5073658;28;20085;-71
2024/01/05 10:14:03;;;;;;;2.00;1.00;;;8.30;99.90;;;;;;5076440;28;20097;-68
2024/01/05 10:16:34;;;;;;;1.73;0.75;;;8.40;99.90;;;;;;5079703;28;20514;-68
2024/01/05 10:19:26;;;;;;;2.47;1.05;;;8.60;99.90;;;;;;5073821;28;20131;-69
2024/01/05 10:21:51;;;;;;;2.65;0.90;;;8.60;99.90;;;;;;5068670;28;20040;-69
2024/01/05 10:24:22;;;;;;;3.78;1.15;;;8.60;99.90;;;;;;5071894;28;20119;-69
2024/01/05 10:27:10;;;;;;;2.42;0.80;;;8.50;99.90;;;;;;5073400;28;20483;-69
2024/01/05 10:29:38;;;;;;;3.97;1.00;;;8.50;99.90;;;;;;5077067;28;20021;-69
2024/01/05 10:32:21;;;;;;;1.80;0.80;;;8.50;99.90;;;;;;5071848;28;20372;-69
2024/01/05 10:34:48;;;;;;;2.50;0.90;;;8.50;99.90;;;;;;5075008;28;20035;-68
2024/01/05 10:37:16;;;;;;;3.78;0.90;;;8.60;99.90;;;;;;5080175;28;20067;-68
2024/01/05 10:39:48;;;;;;;1.88;0.68;;;8.60;99.90;;;;;;5081020;28;20074;-68
2024/01/05 10:42:26;;;;;;;1.35;0.75;;;8.70;99.90;;;;;;5073269;28;20036;-68
2024/01/05 10:44:56;;;;;;;4.20;1.00;;;8.60;99.90;;;;;;5071050;28;20036;-68
2024/01/05 10:47:31;;;;;;;4.13;0.90;;;8.60;99.90;;;;;;5077412;28;20070;-68
2024/01/05 10:49:56;;;;;;;4.28;1.10;;;8.50;99.90;;;;;;5077762;28;20407;-68
2024/01/05 10:52:24;;;;;;;2.42;0.80;;;8.50;99.90;;;;;;5070071;28;20021;-68
2024/01/05 10:54:52;;;;;;;3.65;0.85;;;8.50;99.90;;;;;;5075319;28;20099;-68
2024/01/05 10:57:19;;;;;;;5.45;0.88;;;8.40;99.90;;;;;;5078222;28;20028;-68
2024/01/05 10:59:49;;;;;;;3.63;1.02;;;8.30;99.90;;;;;;5084824;28;20120;-67
2024/01/05 11:02:41;;;;;;;3.60;1.00;;;8.30;99.90;;;;;;5071837;28;20038;-68
2024/01/05 11:05:08;;;;;;;4.50;0.90;;;8.30;99.90;;;;;;5077495;28;20032;-68
2024/01/05 11:07:36;;;;;;;3.15;0.90;;;8.30;99.90;;;;;;5076054;28;20020;-68
2024/01/05 11:10:11;;;;;;;3.47;1.02;;;8.30;99.90;;;;;;5077859;28;20039;-68
2024/01/05 11:12:55;;;;;;;2.60;0.77;;;8.40;99.90;;;;;;5071767;28;20017;-68
2024/01/05 11:16:05;;;;;;;1.77;0.80;;;8.40;99.90;;;;;;5073261;28;20390;-68
2024/01/05 11:18:52;;;;;;;1.38;0.70;;;8.30;99.90;;;;;;5072199;28;20059;-68
2024/01/05 11:21:22;;;;;;;1.10;0.70;;;8.30;99.90;;;;;;5061023;28;20068;-67
2024/01/05 11:23:49;;;;;;;3.13;0.90;;;8.20;99.90;;;;;;5073902;28;20040;-68
2024/01/05 11:26:35;;;;;;;1.38;0.73;;;8.10;99.90;;;;;;5080048;28;20106;-68
2024/01/05 11:29:02;;;;;;;2.28;0.88;;;8.20;99.90;;;;;;5070671;28;20025;-67
2024/01/05 11:31:46;;;;;;;2.70;0.80;;;8.10;99.90;;;;;;5075778;28;20084;-67
2024/01/05 11:34:31;;;;;;;2.15;0.80;;;8.10;99.90;;;;;;5090244;28;20032;-67
2024/01/05 11:36:57;;;;;;;1.77;0.80;;;8.00;99.90;;;;;;5075922;28;20102;-68
2024/01/05 11:39:45;;;;;;;2.03;0.90;;;8.10;99.90;;;;;;5075555;28;20024;-67
2024/01/05 11:42:23;;;;;;;2.22;0.80;;;8.10;99.90;;;;;;5072567;28;20028;-68
2024/01/05 11:44:49;;;;;;;1.83;0.80;;;8.10;99.90;;;;;;5071077;28;20028;-68
2024/01/05 11:47:41;;;;;;;5.70;1.10;;;8.10;99.90;;;;;;5073215;28;20039;-68
2024/01/05 11:50:26;;;;;;;2.63;0.85;;;8.20;99.90;;;;;;5075672;28;20395;-68
2024/01/05 11:53:15;;;;;;;1.77;0.80;;;8.10;99.90;;;;;;5066362;28;20021;-68
2024/01/05 11:55:58;;;;;;;2.45;0.80;;;8.10;99.90;;;;;;5072475;28;20112;-71
2024/01/05 11:58:31;;;;;;;0.80;0.70;;;8.00;99.90;;;;;;5075021;28;20518;-68
2024/01/05 12:00:59;;;;;;;2.50;0.90;;;8.00;99.90;;;;;;5075005;28;20154;-68
2024/01/05 12:03:25;;;;;;;1.23;0.80;;;8.00;99.90;;;;;;5076886;28;20032;-68
2024/01/05 12:06:03;;;;;;;1.05;0.73;;;8.00;99.90;;;;;;5075914;28;20029;-68
2024/01/05 12:08:29;;;;;;;0.85;0.70;;;8.00;99.90;;;;;;5075199;28;20040;-68
2024/01/05 12:11:03;;;;;;;3.60;0.93;;;8.00;99.90;;;;;;5075387;28;20017;-68
2024/01/05 12:13:30;;;;;;;3.15;1.00;;;8.10;99.90;;;;;;5075335;28;20020;-68
2024/01/05 12:16:00;;;;;;;1.73;0.90;;;8.00;99.90;;;;;;5074860;28;20021;-69
2024/01/05 12:18:26;;;;;;;2.05;0.90;;;8.00;99.90;;;;;;5073421;28;20111;-68
2024/01/05 12:20:55;;;;;;;3.53;1.00;;;7.90;99.90;;;;;;5077166;28;20035;-68
2024/01/05 12:23:21;;;;;;;2.42;0.90;;;8.00;99.90;;;;;;5076512;28;20028;-68
2024/01/05 12:26:00;;;;;;;2.75;0.90;;;7.90;99.90;;;;;;5074592;28;20528;-68
2024/01/05 12:28:34;;;;;;;3.03;0.90;;;7.90;99.90;;;;;;5076940;28;20036;-69
2024/01/05 12:31:02;;;;;;;3.75;1.00;;;7.90;99.90;;;;;;5075713;28;20060;-70
2024/01/05 12:33:29;;;;;;;3.63;0.75;;;8.00;99.90;;;;;;5075868;28;20012;-68
2024/01/05 12:35:55;;;;;;;1.95;0.88;;;8.00;99.90;;;;;;5077424;28;20472;-68
2024/01/05 12:38:28;;;;;;;2.85;0.98;;;8.10;99.90;;;;;;5076934;28;20047;-68
2024/01/05 12:41:08;;;;;;;1.88;0.80;;;8.10;99.90;;;;;;5078216;28;20040;-68
2024/01/05 12:43:37;;;;;;;2.67;0.90;;;8.30;99.90;;;;;;5074423;28;20043;-68
2024/01/05 12:46:04;;;;;;;2.42;0.93;;;8.20;99.90;;;;;;5081728;28;20418;-68
2024/01/05 12:48:31;;;;;;;2.70;0.93;;;8.30;99.90;;;;;;5078815;28;20159;-69
2024/01/05 12:51:18;;;;;;;2.25;0.80;;;8.40;99.90;;;;;;5083739;28;20032;-68
2024/01/05 12:53:49;;;;;;;3.25;1.08;;;8.40;99.90;;;;;;5072700;28;20016;-69
2024/01/05 12:56:20;;;;;;;;;;;8.40;99.90;;;;;;5066568;28;20024;-70